sensor_id;sensor_type;location;lat;lon;timestamp;pressure;altitude;pressure_sealevel;temperature;humidity
3668;BME280;24099;47.102;15.440;2022-07-15T00:01:27;96717.69;;;17.57;100.00
3668;BME280;24099;47.102;15.440;2022-07-15T00:03:55;96720.06;;;17.58;100.00
3668;BME280;24099;47.102;15.440;2022-07-15T00:06:22;96713.72;;;17.19;100.00
3668;BME280;24099;47.102;15.440;2022-07-15T00:08:50;96707.03;;;17.17;100.00
3668;BME280;24099;47.102;15.440;2022-07-15T00:11:18;96721.97;;;17.18;100.00
3668;BME280;24099;47.102;15.440;2022-07-15T00:13:45;96722.84;;;17.23;100.00
3668;BME280;24099;47.102;15.440;2022-07-15T00:16:13;96717.44;;;17.18;100.00
3668;BME280;24099;47.102;15.440;2022-07-15T00:18:42;96729.94;;;17.18;100.00
3668;BME280;24099;47.102;15.440;2022-07-15T00:21:10;96716.75;;;17.11;100.00
3668;BME280;24099;47.102;15.440;2022-07-15T00:23:37;96723.06;;;17.22;100.00
3668;BME280;24099;47.102;15.440;2022-07-15T00:26:05;96726.94;;;17.14;100.00
3668;BME280;24099;47.102;15.440;2022-07-15T00:28:33;96720.81;;;17.14;100.00
3668;BME280;24099;47.102;15.440;2022-07-15T00:31:01;96713.63;;;17.14;100.00
3668;BME280;24099;47.102;15.440;2022-07-15T00:33:28;96717.91;;;17.15;100.00
3668;BME280;24099;47.102;15.440;2022-07-15T00:35:57;96707.59;;;17.19;100.00
3668;BME280;24099;47.102;15.440;2022-07-15T00:38:25;96719.25;;;17.30;100.00
3668;BME280;24099;47.102;15.440;2022-07-15T00:40:53;96717.97;;;17.32;100.00
3668;BME280;24099;47.102;15.440;2022-07-15T00:43:20;96733.91;;;17.44;100.00
3668;BME280;24099;47.102;15.440;2022-07-15T00:45:48;96741.75;;;17.50;100.00
3668;BME280;24099;47.102;15.440;2022-07-15T00:48:15;96743.63;;;17.50;100.00
3668;BME280;24099;47.102;15.440;2022-07-15T00:50:51;96735.34;;;17.63;100.00
3668;BME280;24099;47.102;15.440;2022-07-15T00:53:21;96726.47;;;17.58;100.00
3668;BME280;24099;47.102;15.440;2022-07-15T00:55:50;96719.66;;;17.50;100.00
3668;BME280;24099;47.102;15.440;2022-07-15T00:58:23;96713.41;;;17.56;100.00
3668;BME280;24099;47.102;15.440;2022-07-15T01:00:51;96709.44;;;17.70;100.00
3668;BME280;24099;47.102;15.440;2022-07-15T01:03:19;96719.94;;;17.77;100.00
3668;BME280;24099;47.102;15.440;2022-07-15T01:05:48;96725.97;;;17.72;100.00
3668;BME280;24099;47.102;15.440;2022-07-15T01:08:16;96730.59;;;17.77;100.00
3668;BME280;24099;47.102;15.440;2022-07-15T01:10:47;96736.72;;;17.77;100.00
3668;BME280;24099;47.102;15.440;2022-07-15T01:13:16;96742.41;;;17.69;100.00
3668;BME280;24099;47.102;15.440;2022-07-15T01:15:46;96731.00;;;17.57;100.00
3668;BME280;24099;47.102;15.440;2022-07-15T01:18:15;96738.97;;;17.57;100.00
3668;BME280;24099;47.102;15.440;2022-07-15T01:20:47;96742.56;;;17.51;100.00
3668;BME280;24099;47.102;15.440;2022-07-15T01:23:16;96736.78;;;17.42;100.00
3668;BME280;24099;47.102;15.440;2022-07-15T01:25:49;96742.09;;;17.54;100.00
3668;BME280;24099;47.102;15.440;2022-07-15T01:28:20;96746.50;;;17.48;100.00
3668;BME280;24099;47.102;15.440;2022-07-15T01:30:48;96740.91;;;17.62;100.00
3668;BME280;24099;47.102;15.440;2022-07-15T01:33:16;96744.19;;;17.52;100.00
3668;BME280;24099;47.102;15.440;2022-07-15T01:35:43;96750.97;;;17.60;100.00
3668;BME280;24099;47.102;15.440;2022-07-15T01:38:12;96739.50;;;17.59;100.00
3668;BME280;24099;47.102;15.440;2022-07-15T01:40:41;96746.47;;;17.60;100.00
3668;BME280;24099;47.102;15.440;2022-07-15T01:43:09;96749.28;;;17.53;100.00
3668;BME280;24099;47.102;15.440;2022-07-15T01:45:41;96747.84;;;17.63;100.00
3668;BME280;24099;47.102;15.440;2022-07-15T01:48:11;96761.75;;;17.65;100.00
3668;BME280;24099;47.102;15.440;2022-07-15T01:51:31;96771.84;;;17.91;100.00
3668;BME280;24099;47.102;15.440;2022-07-15T01:54:00;96792.16;;;18.09;100.00
3668;BME280;24099;47.102;15.440;2022-07-15T01:56:28;96792.91;;;17.93;100.00
3668;BME280;24099;47.102;15.440;2022-07-15T01:58:55;96789.69;;;17.90;100.00
3668;BME280;24099;47.102;15.440;2022-07-15T02:01:27;96787.09;;;17.67;100.00
3668;BME280;24099;47.102;15.440;2022-07-15T02:03:57;96786.88;;;17.57;100.00
3668;BME280;24099;47.102;15.440;2022-07-15T02:06:24;96788.56;;;17.63;100.00
3668;BME280;24099;47.102;15.440;2022-07-15T02:08:53;96785.03;;;17.58;100.00
3668;BME280;24099;47.102;15.440;2022-07-15T02:11:24;96782.91;;;17.60;100.00
3668;BME280;24099;47.102;15.440;2022-07-15T02:13:52;96770.09;;;17.45;100.00
3668;BME280;24099;47.102;15.440;2022-07-15T02:16:25;96783.63;;;17.55;100.00
3668;BME280;24099;47.102;15.440;2022-07-15T02:18:53;96781.88;;;17.61;100.00
3668;BME280;24099;47.102;15.440;2022-07-15T02:21:21;96794.19;;;17.27;100.00
3668;BME280;24099;47.102;15.440;2022-07-15T02:23:49;96793.03;;;17.22;100.00
3668;BME280;24099;47.102;15.440;2022-07-15T02:26:19;96793.41;;;17.26;100.00
3668;BME280;24099;47.102;15.440;2022-07-15T02:28:50;96801.03;;;17.11;100.00
3668;BME280;24099;47.102;15.440;2022-07-15T02:31:18;96800.94;;;17.17;100.00
3668;BME280;24099;47.102;15.440;2022-07-15T02:33:45;96799.88;;;17.30;100.00
3668;BME280;24099;47.102;15.440;2022-07-15T02:36:13;96796.31;;;17.13;100.00
3668;BME280;24099;47.102;15.440;2022-07-15T02:38:41;96794.00;;;17.16;100.00
3668;BME280;24099;47.102;15.440;2022-07-15T02:41:10;96800.56;;;17.02;100.00
3668;BME280;24099;47.102;15.440;2022-07-15T02:43:40;96799.53;;;17.15;100.00
3668;BME280;24099;47.102;15.440;2022-07-15T02:46:11;96798.81;;;17.19;100.00
3668;BME280;24099;47.102;15.440;2022-07-15T02:48:39;96807.06;;;17.18;100.00
3668;BME280;24099;47.102;15.440;2022-07-15T02:51:07;96818.84;;;17.10;100.00
3668;BME280;24099;47.102;15.440;2022-07-15T02:53:36;96820.22;;;17.25;100.00
3668;BME280;24099;47.102;15.440;2022-07-15T02:56:08;96840.00;;;16.94;100.00
3668;BME280;24099;47.102;15.440;2022-07-15T02:58:37;96846.94;;;16.95;100.00
3668;BME280;24099;47.102;15.440;2022-07-15T03:01:05;96849.34;;;16.84;100.00
3668;BME280;24099;47.102;15.440;2022-07-15T03:03:35;96858.13;;;16.73;100.00
3668;BME280;24099;47.102;15.440;2022-07-15T03:06:05;96858.13;;;16.73;100.00
3668;BME280;24099;47.102;15.440;2022-07-15T03:08:32;96866.81;;;16.92;100.00
3668;BME280;24099;47.102;15.440;2022-07-15T03:11:00;96871.28;;;16.80;100.00
3668;BME280;24099;47.102;15.440;2022-07-15T03:13:28;96873.50;;;16.83;100.00
3668;BME280;24099;47.102;15.440;2022-07-15T03:15:58;96897.31;;;16.78;100.00
3668;BME280;24099;47.102;15.440;2022-07-15T03:18:26;96903.78;;;16.82;100.00
3668;BME280;24099;47.102;15.440;2022-07-15T03:20:55;96902.72;;;16.83;100.00
3668;BME280;24099;47.102;15.440;2022-07-15T03:23:23;96907.00;;;16.72;100.00
3668;BME280;24099;47.102;15.440;2022-07-15T03:25:52;96916.47;;;16.68;100.00
3668;BME280;24099;47.102;15.440;2022-07-15T03:28:20;96933.34;;;16.74;100.00
3668;BME280;24099;47.102;15.440;2022-07-15T03:30:48;96935.28;;;16.67;100.00
3668;BME280;24099;47.102;15.440;2022-07-15T03:33:16;96949.28;;;16.74;100.00
3668;BME280;24099;47.102;15.440;2022-07-15T03:35:45;96960.53;;;16.76;100.00
3668;BME280;24099;47.102;15.440;2022-07-15T03:38:17;96969.09;;;16.78;100.00
3668;BME280;24099;47.102;15.440;2022-07-15T03:40:44;96983.25;;;16.72;100.00
3668;BME280;24099;47.102;15.440;2022-07-15T03:43:11;96981.63;;;16.71;100.00
3668;BME280;24099;47.102;15.440;2022-07-15T03:45:40;96982.81;;;16.75;100.00
3668;BME280;24099;47.102;15.440;2022-07-15T03:48:08;96968.53;;;16.87;100.00
3668;BME280;24099;47.102;15.440;2022-07-15T03:50:36;96973.75;;;16.94;100.00
3668;BME280;24099;47.102;15.440;2022-07-15T03:53:04;96976.50;;;16.87;100.00
3668;BME280;24099;47.102;15.440;2022-07-15T03:55:33;96981.38;;;16.91;100.00
3668;BME280;24099;47.102;15.440;2022-07-15T03:58:02;96981.28;;;16.97;100.00
3668;BME280;24099;47.102;15.440;2022-07-15T04:00:33;96971.94;;;17.06;100.00
3668;BME280;24099;47.102;15.440;2022-07-15T04:03:01;96970.44;;;17.22;100.00
3668;BME280;24099;47.102;15.440;2022-07-15T04:05:28;96966.16;;;17.21;100.00
3668;BME280;24099;47.102;15.440;2022-07-15T04:07:56;96968.25;;;17.19;100.00
3668;BME280;24099;47.102;15.440;2022-07-15T04:10:26;96966.75;;;17.11;100.00
3668;BME280;24099;47.102;15.440;2022-07-15T04:12:55;96949.16;;;17.10;100.00
3668;BME280;24099;47.102;15.440;2022-07-15T04:15:23;96963.41;;;17.16;100.00
3668;BME280;24099;47.102;15.440;2022-07-15T04:17:51;96961.66;;;17.21;100.00
3668;BME280;24099;47.102;15.440;2022-07-15T04:20:21;96966.88;;;17.28;100.00
3668;BME280;24099;47.102;15.440;2022-07-15T04:22:52;96971.72;;;17.19;100.00
3668;BME280;24099;47.102;15.440;2022-07-15T04:25:21;96959.81;;;17.22;100.00
3668;BME280;24099;47.102;15.440;2022-07-15T04:27:49;96959.50;;;17.30;100.00
3668;BME280;24099;47.102;15.440;2022-07-15T04:30:23;96972.22;;;17.40;100.00
3668;BME280;24099;47.102;15.440;2022-07-15T04:32:51;96972.91;;;17.35;100.00
3668;BME280;24099;47.102;15.440;2022-07-15T04:35:20;96963.66;;;17.38;100.00
3668;BME280;24099;47.102;15.440;2022-07-15T04:37:55;96966.09;;;17.51;100.00
3668;BME280;24099;47.102;15.440;2022-07-15T04:40:28;96981.47;;;17.49;100.00
3668;BME280;24099;47.102;15.440;2022-07-15T04:42:55;96996.09;;;17.58;100.00
3668;BME280;24099;47.102;15.440;2022-07-15T04:45:25;97007.56;;;17.70;100.00
3668;BME280;24099;47.102;15.440;2022-07-15T04:47:52;97019.47;;;17.68;100.00
3668;BME280;24099;47.102;15.440;2022-07-15T04:50:28;97033.06;;;17.78;100.00
3668;BME280;24099;47.102;15.440;2022-07-15T04:53:13;97031.75;;;17.69;100.00
3668;BME280;24099;47.102;15.440;2022-07-15T04:55:43;97044.75;;;17.77;100.00
3668;BME280;24099;47.102;15.440;2022-07-15T04:58:10;97035.81;;;17.83;100.00
3668;BME280;24099;47.102;15.440;2022-07-15T05:00:44;97022.88;;;17.98;100.00
3668;BME280;24099;47.102;15.440;2022-07-15T05:03:14;97023.31;;;18.07;100.00
3668;BME280;24099;47.102;15.440;2022-07-15T05:05:41;97008.03;;;18.14;100.00
3668;BME280;24099;47.102;15.440;2022-07-15T05:08:11;96996.69;;;18.18;100.00
3668;BME280;24099;47.102;15.440;2022-07-15T05:10:44;97010.91;;;18.12;100.00
3668;BME280;24099;47.102;15.440;2022-07-15T05:13:12;97025.25;;;18.23;100.00
3668;BME280;24099;47.102;15.440;2022-07-15T05:15:44;97036.03;;;18.28;100.00
3668;BME280;24099;47.102;15.440;2022-07-15T05:18:15;97034.19;;;18.29;100.00
3668;BME280;24099;47.102;15.440;2022-07-15T05:20:43;97032.16;;;18.47;100.00
3668;BME280;24099;47.102;15.440;2022-07-15T05:23:15;97027.19;;;18.63;100.00
3668;BME280;24099;47.102;15.440;2022-07-15T05:25:47;97038.81;;;18.85;100.00
3668;BME280;24099;47.102;15.440;2022-07-15T05:28:15;97041.47;;;18.85;100.00
3668;BME280;24099;47.102;15.440;2022-07-15T05:30:44;97046.91;;;18.90;100.00
3668;BME280;24099;47.102;15.440;2022-07-15T05:33:15;97035.09;;;18.86;100.00
3668;BME280;24099;47.102;15.440;2022-07-15T05:35:43;97039.19;;;19.05;100.00
3668;BME280;24099;47.102;15.440;2022-07-15T05:38:11;97057.09;;;19.21;100.00
3668;BME280;24099;47.102;15.440;2022-07-15T05:40:41;97061.38;;;19.22;100.00
3668;BME280;24099;47.102;15.440;2022-07-15T05:43:10;97060.91;;;19.25;100.00
3668;BME280;24099;47.102;15.440;2022-07-15T05:45:40;97071.72;;;19.19;100.00
3668;BME280;24099;47.102;15.440;2022-07-15T05:48:09;97082.97;;;19.21;100.00
3668;BME280;24099;47.102;15.440;2022-07-15T05:50:43;97085.50;;;19.27;100.00
3668;BME280;24099;47.102;15.440;2022-07-15T05:53:12;97087.50;;;19.20;100.00
3668;BME280;24099;47.102;15.440;2022-07-15T05:55:40;97092.94;;;19.25;100.00
3668;BME280;24099;47.102;15.440;2022-07-15T05:58:11;97087.22;;;19.34;100.00
3668;BME280;24099;47.102;15.440;2022-07-15T06:00:41;97088.44;;;19.54;100.00
3668;BME280;24099;47.102;15.440;2022-07-15T06:03:10;97090.28;;;19.54;100.00
3668;BME280;24099;47.102;15.440;2022-07-15T06:05:41;97085.19;;;19.52;100.00
3668;BME280;24099;47.102;15.440;2022-07-15T06:08:09;97083.44;;;19.58;100.00
3668;BME280;24099;47.102;15.440;2022-07-15T06:10:40;97076.06;;;19.65;100.00
3668;BME280;24099;47.102;15.440;2022-07-15T06:13:09;97079.22;;;19.79;100.00
3668;BME280;24099;47.102;15.440;2022-07-15T06:15:38;97094.94;;;20.09;100.00
3668;BME280;24099;47.102;15.440;2022-07-15T06:18:09;97092.78;;;20.27;100.00
3668;BME280;24099;47.102;15.440;2022-07-15T06:20:37;97104.63;;;20.32;100.00
3668;BME280;24099;47.102;15.440;2022-07-15T06:23:05;97096.84;;;20.30;100.00
3668;BME280;24099;47.102;15.440;2022-07-15T06:25:35;97102.03;;;20.20;100.00
3668;BME280;24099;47.102;15.440;2022-07-15T06:28:03;97099.06;;;20.16;100.00
3668;BME280;24099;47.102;15.440;2022-07-15T06:30:30;97104.94;;;20.35;100.00
3668;BME280;24099;47.102;15.440;2022-07-15T06:32:58;97107.38;;;20.53;100.00
3668;BME280;24099;47.102;15.440;2022-07-15T06:35:28;97109.66;;;20.45;100.00
3668;BME280;24099;47.102;15.440;2022-07-15T06:37:56;97107.06;;;20.33;100.00
3668;BME280;24099;47.102;15.440;2022-07-15T06:40:24;97101.72;;;20.33;100.00
3668;BME280;24099;47.102;15.440;2022-07-15T06:42:51;97108.59;;;20.46;100.00
3668;BME280;24099;47.102;15.440;2022-07-15T06:45:25;97103.88;;;20.53;100.00
3668;BME280;24099;47.102;15.440;2022-07-15T06:47:54;97114.03;;;20.51;100.00
3668;BME280;24099;47.102;15.440;2022-07-15T06:50:28;97104.38;;;20.50;100.00
3668;BME280;24099;47.102;15.440;2022-07-15T06:52:56;97099.53;;;20.47;100.00
3668;BME280;24099;47.102;15.440;2022-07-15T06:55:23;97106.50;;;20.48;100.00
3668;BME280;24099;47.102;15.440;2022-07-15T06:57:51;97106.44;;;20.64;100.00
3668;BME280;24099;47.102;15.440;2022-07-15T07:00:18;97117.22;;;20.70;100.00
3668;BME280;24099;47.102;15.440;2022-07-15T07:02:46;97119.66;;;20.71;100.00
3668;BME280;24099;47.102;15.440;2022-07-15T07:05:16;97119.16;;;20.74;100.00
3668;BME280;24099;47.102;15.440;2022-07-15T07:07:46;97122.41;;;20.76;100.00
3668;BME280;24099;47.102;15.440;2022-07-15T07:10:14;97126.63;;;20.72;100.00
3668;BME280;24099;47.102;15.440;2022-07-15T07:12:44;97131.31;;;20.65;100.00
3668;BME280;24099;47.102;15.440;2022-07-15T07:15:12;97133.69;;;20.61;100.00
3668;BME280;24099;47.102;15.440;2022-07-15T07:17:39;97137.31;;;20.72;100.00
3668;BME280;24099;47.102;15.440;2022-07-15T07:20:08;97139.75;;;20.74;100.00
3668;BME280;24099;47.102;15.440;2022-07-15T07:22:39;97141.03;;;20.71;100.00
3668;BME280;24099;47.102;15.440;2022-07-15T07:25:08;97144.13;;;20.63;100.00
3668;BME280;24099;47.102;15.440;2022-07-15T07:27:36;97138.38;;;20.71;100.00
3668;BME280;24099;47.102;15.440;2022-07-15T07:30:05;97138.88;;;20.68;100.00
3668;BME280;24099;47.102;15.440;2022-07-15T07:32:32;97147.28;;;20.77;100.00
3668;BME280;24099;47.102;15.440;2022-07-15T07:35:00;97150.81;;;20.82;100.00
3668;BME280;24099;47.102;15.440;2022-07-15T07:37:27;97149.75;;;20.83;100.00
3668;BME280;24099;47.102;15.440;2022-07-15T07:39:55;97152.03;;;20.91;100.00
3668;BME280;24099;47.102;15.440;2022-07-15T07:42:24;97150.09;;;21.09;100.00
3668;BME280;24099;47.102;15.440;2022-07-15T07:44:51;97150.78;;;21.21;100.00
3668;BME280;24099;47.102;15.440;2022-07-15T07:47:19;97154.97;;;21.34;100.00
3668;BME280;24099;47.102;15.440;2022-07-15T07:49:48;97164.94;;;21.38;100.00
3668;BME280;24099;47.102;15.440;2022-07-15T07:52:15;97154.25;;;21.43;100.00
3668;BME280;24099;47.102;15.440;2022-07-15T07:54:43;97159.63;;;21.43;100.00
3668;BME280;24099;47.102;15.440;2022-07-15T07:57:11;97161.25;;;21.44;100.00
3668;BME280;24099;47.102;15.440;2022-07-15T07:59:39;97171.13;;;21.44;100.00
3668;BME280;24099;47.102;15.440;2022-07-15T08:02:07;97174.69;;;21.49;100.00
3668;BME280;24099;47.102;15.440;2022-07-15T08:04:35;97182.53;;;21.56;100.00
3668;BME280;24099;47.102;15.440;2022-07-15T08:07:03;97181.56;;;21.67;100.00
3668;BME280;24099;47.102;15.440;2022-07-15T08:09:32;97183.84;;;21.80;100.00
3668;BME280;24099;47.102;15.440;2022-07-15T08:12:00;97174.31;;;21.89;100.00
3668;BME280;24099;47.102;15.440;2022-07-15T08:14:29;97174.84;;;21.91;100.00
3668;BME280;24099;47.102;15.440;2022-07-15T08:16:57;97179.97;;;21.93;100.00
3668;BME280;24099;47.102;15.440;2022-07-15T08:19:25;97184.00;;;21.95;100.00
3668;BME280;24099;47.102;15.440;2022-07-15T08:21:53;97184.28;;;21.99;100.00
3668;BME280;24099;47.102;15.440;2022-07-15T08:24:20;97191.00;;;21.96;100.00
3668;BME280;24099;47.102;15.440;2022-07-15T08:26:48;97181.94;;;22.03;100.00
3668;BME280;24099;47.102;15.440;2022-07-15T08:29:16;97188.84;;;21.98;100.00
3668;BME280;24099;47.102;15.440;2022-07-15T08:31:44;97174.22;;;22.06;100.00
3668;BME280;24099;47.102;15.440;2022-07-15T08:34:13;97170.53;;;22.12;100.00
3668;BME280;24099;47.102;15.440;2022-07-15T08:36:40;97176.22;;;22.21;100.00
3668;BME280;24099;47.102;15.440;2022-07-15T08:39:08;97176.44;;;22.14;100.00
3668;BME280;24099;47.102;15.440;2022-07-15T08:41:36;97177.81;;;22.17;100.00
3668;BME280;24099;47.102;15.440;2022-07-15T08:44:05;97195.78;;;22.21;100.00
3668;BME280;24099;47.102;15.440;2022-07-15T08:46:33;97196.16;;;22.03;100.00
3668;BME280;24099;47.102;15.440;2022-07-15T08:49:06;97200.38;;;21.99;100.00
3668;BME280;24099;47.102;15.440;2022-07-15T08:51:40;97193.06;;;21.89;100.00
3668;BME280;24099;47.102;15.440;2022-07-15T08:54:08;97197.81;;;21.82;100.00
3668;BME280;24099;47.102;15.440;2022-07-15T08:56:36;97210.69;;;21.85;100.00
3668;BME280;24099;47.102;15.440;2022-07-15T08:59:05;97200.94;;;21.74;100.00
3668;BME280;24099;47.102;15.440;2022-07-15T09:01:39;97216.19;;;21.95;100.00
3668;BME280;24099;47.102;15.440;2022-07-15T09:04:08;97218.31;;;21.93;100.00
3668;BME280;24099;47.102;15.440;2022-07-15T09:06:42;97224.16;;;21.90;100.00
3668;BME280;24099;47.102;15.440;2022-07-15T09:09:28;97218.81;;;21.90;100.00
3668;BME280;24099;47.102;15.440;2022-07-15T09:12:02;97220.13;;;21.88;100.00
3668;BME280;24099;47.102;15.440;2022-07-15T09:14:31;97219.22;;;22.04;100.00
3668;BME280;24099;47.102;15.440;2022-07-15T09:17:22;97219.28;;;22.09;100.00
3668;BME280;24099;47.102;15.440;2022-07-15T09:20:09;97221.47;;;22.12;100.00
3668;BME280;24099;47.102;15.440;2022-07-15T09:22:52;97222.84;;;22.20;100.00
3668;BME280;24099;47.102;15.440;2022-07-15T09:25:22;97220.47;;;22.23;100.00
3668;BME280;24099;47.102;15.440;2022-07-15T09:27:50;97218.16;;;22.32;100.00
3668;BME280;24099;47.102;15.440;2022-07-15T09:30:21;97225.19;;;22.43;100.00
3668;BME280;24099;47.102;15.440;2022-07-15T09:33:10;97231.13;;;22.45;100.00
3668;BME280;24099;47.102;15.440;2022-07-15T09:36:13;97227.38;;;22.46;100.00
3668;BME280;24099;47.102;15.440;2022-07-15T09:38:51;97226.50;;;22.73;100.00
3668;BME280;24099;47.102;15.440;2022-07-15T09:41:29;97224.81;;;22.61;100.00
3668;BME280;24099;47.102;15.440;2022-07-15T09:44:01;97225.91;;;22.65;100.00
3668;BME280;24099;47.102;15.440;2022-07-15T09:46:40;97225.50;;;22.79;100.00
3668;BME280;24099;47.102;15.440;2022-07-15T09:49:09;97225.19;;;22.43;100.00
3668;BME280;24099;47.102;15.440;2022-07-15T09:51:49;97220.09;;;22.42;100.00
3668;BME280;24099;47.102;15.440;2022-07-15T09:54:22;97231.72;;;22.52;100.00
3668;BME280;24099;47.102;15.440;2022-07-15T09:56:50;97225.03;;;22.55;100.00
3668;BME280;24099;47.102;15.440;2022-07-15T09:59:19;97231.50;;;22.59;100.00
3668;BME280;24099;47.102;15.440;2022-07-15T10:01:47;97240.41;;;22.64;100.00
3668;BME280;24099;47.102;15.440;2022-07-15T10:04:16;97238.16;;;22.51;100.00
3668;BME280;24099;47.102;15.440;2022-07-15T10:06:44;97238.72;;;22.58;100.00
3668;BME280;24099;47.102;15.440;2022-07-15T10:09:14;97237.50;;;22.39;100.00
3668;BME280;24099;47.102;15.440;2022-07-15T10:11:50;97229.34;;;22.61;100.00
3668;BME280;24099;47.102;15.440;2022-07-15T10:14:46;97234.19;;;22.91;100.00
3668;BME280;24099;47.102;15.440;2022-07-15T10:20:46;97232.94;;;23.61;100.00
3668;BME280;24099;47.102;15.440;2022-07-15T10:26:27;97236.47;;;23.19;100.00
3668;BME280;24099;47.102;15.440;2022-07-15T10:29:04;97232.94;;;23.09;100.00
3668;BME280;24099;47.102;15.440;2022-07-15T10:31:35;97222.03;;;22.83;100.00
3668;BME280;24099;47.102;15.440;2022-07-15T10:34:20;97229.47;;;23.13;100.00
3668;BME280;24099;47.102;15.440;2022-07-15T10:37:04;97232.50;;;23.27;100.00
3668;BME280;24099;47.102;15.440;2022-07-15T10:39:50;97238.06;;;23.10;100.00
3668;BME280;24099;47.102;15.440;2022-07-15T10:42:20;97230.94;;;22.89;100.00
3668;BME280;24099;47.102;15.440;2022-07-15T10:45:06;97235.41;;;22.78;100.00
3668;BME280;24099;47.102;15.440;2022-07-15T10:47:34;97231.19;;;23.34;100.00
3668;BME280;24099;47.102;15.440;2022-07-15T10:50:37;97226.03;;;23.85;100.00
3668;BME280;24099;47.102;15.440;2022-07-15T10:53:22;97229.16;;;23.52;100.00
3668;BME280;24099;47.102;15.440;2022-07-15T10:55:50;97226.25;;;23.68;100.00
3668;BME280;24099;47.102;15.440;2022-07-15T10:58:18;97233.38;;;23.38;100.00
3668;BME280;24099;47.102;15.440;2022-07-15T11:00:47;97225.72;;;23.14;100.00
3668;BME280;24099;47.102;15.440;2022-07-15T11:03:17;97231.09;;;23.14;100.00
3668;BME280;24099;47.102;15.440;2022-07-15T11:06:05;97230.97;;;22.94;100.00
3668;BME280;24099;47.102;15.440;2022-07-15T11:08:50;97235.66;;;23.19;100.00
3668;BME280;24099;47.102;15.440;2022-07-15T11:11:46;97231.06;;;23.09;100.00
3668;BME280;24099;47.102;15.440;2022-07-15T11:14:44;97225.00;;;23.29;100.00
3668;BME280;24099;47.102;15.440;2022-07-15T11:17:18;97222.09;;;23.46;100.00
3668;BME280;24099;47.102;15.440;2022-07-15T11:19:52;97221.63;;;23.54;100.00
3668;BME280;24099;47.102;15.440;2022-07-15T11:22:23;97222.13;;;23.51;100.00
3668;BME280;24099;47.102;15.440;2022-07-15T11:24:51;97212.25;;;23.61;100.00
3668;BME280;24099;47.102;15.440;2022-07-15T11:27:20;97211.19;;;23.57;100.00
3668;BME280;24099;47.102;15.440;2022-07-15T11:29:50;97215.56;;;24.19;100.00
3668;BME280;24099;47.102;15.440;2022-07-15T11:32:20;97216.19;;;24.31;100.00
3668;BME280;24099;47.102;15.440;2022-07-15T11:34:51;97213.41;;;24.01;100.00
3668;BME280;24099;47.102;15.440;2022-07-15T11:37:23;97216.81;;;23.61;100.00
3668;BME280;24099;47.102;15.440;2022-07-15T11:40:07;97205.19;;;23.50;100.00
3668;BME280;24099;47.102;15.440;2022-07-15T11:42:35;97206.50;;;23.43;100.00
3668;BME280;24099;47.102;15.440;2022-07-15T11:45:33;97205.72;;;23.47;100.00
3668;BME280;24099;47.102;15.440;2022-07-15T11:48:05;97209.94;;;23.28;100.00
3668;BME280;24099;47.102;15.440;2022-07-15T11:50:34;97218.06;;;23.38;100.00
3668;BME280;24099;47.102;15.440;2022-07-15T11:53:10;97210.00;;;23.38;100.00
3668;BME280;24099;47.102;15.440;2022-07-15T11:55:51;97216.44;;;23.42;100.00
3668;BME280;24099;47.102;15.440;2022-07-15T11:58:30;97216.06;;;23.13;100.00
3668;BME280;24099;47.102;15.440;2022-07-15T12:00:59;97228.50;;;22.87;100.00
3668;BME280;24099;47.102;15.440;2022-07-15T12:03:41;97223.59;;;23.21;100.00
3668;BME280;24099;47.102;15.440;2022-07-15T12:06:13;97234.34;;;23.21;100.00
3668;BME280;24099;47.102;15.440;2022-07-15T12:08:47;97233.19;;;23.07;100.00
3668;BME280;24099;47.102;15.440;2022-07-15T12:11:22;97229.97;;;23.05;100.00
3668;BME280;24099;47.102;15.440;2022-07-15T12:13:55;97224.19;;;23.28;100.00
3668;BME280;24099;47.102;15.440;2022-07-15T12:16:29;97232.38;;;23.54;100.00
3668;BME280;24099;47.102;15.440;2022-07-15T12:19:00;97226.75;;;23.55;100.00
3668;BME280;24099;47.102;15.440;2022-07-15T12:21:28;97233.13;;;23.49;100.00
3668;BME280;24099;47.102;15.440;2022-07-15T12:24:07;97227.03;;;23.64;100.00
3668;BME280;24099;47.102;15.440;2022-07-15T12:26:38;97224.88;;;23.66;100.00
3668;BME280;24099;47.102;15.440;2022-07-15T12:29:10;97230.88;;;23.88;100.00
3668;BME280;24099;47.102;15.440;2022-07-15T12:31:40;97227.88;;;23.75;100.00
3668;BME280;24099;47.102;15.440;2022-07-15T12:34:11;97231.66;;;23.74;100.00
3668;BME280;24099;47.102;15.440;2022-07-15T12:36:39;97227.00;;;23.54;100.00
3668;BME280;24099;47.102;15.440;2022-07-15T12:39:13;97227.63;;;23.86;100.00
3668;BME280;24099;47.102;15.440;2022-07-15T12:41:44;97215.25;;;23.80;100.00
3668;BME280;24099;47.102;15.440;2022-07-15T12:44:12;97219.09;;;24.10;100.00
3668;BME280;24099;47.102;15.440;2022-07-15T12:46:51;97225.75;;;23.77;100.00
3668;BME280;24099;47.102;15.440;2022-07-15T12:49:44;97223.19;;;23.50;100.00
3668;BME280;24099;47.102;15.440;2022-07-15T12:52:24;97216.56;;;23.67;100.00
3668;BME280;24099;47.102;15.440;2022-07-15T12:54:54;97222.69;;;23.53;100.00
3668;BME280;24099;47.102;15.440;2022-07-15T12:57:32;97218.16;;;23.06;100.00
3668;BME280;24099;47.102;15.440;2022-07-15T13:00:04;97226.56;;;23.25;100.00
3668;BME280;24099;47.102;15.440;2022-07-15T13:02:36;97224.31;;;23.54;100.00
3668;BME280;24099;47.102;15.440;2022-07-15T13:05:21;97226.13;;;23.43;100.00
3668;BME280;24099;47.102;15.440;2022-07-15T13:07:49;97229.16;;;23.62;100.00
3668;BME280;24099;47.102;15.440;2022-07-15T13:10:17;97227.44;;;23.35;100.00
3668;BME280;24099;47.102;15.440;2022-07-15T13:12:44;97225.28;;;23.32;100.00
3668;BME280;24099;47.102;15.440;2022-07-15T13:15:12;97237.41;;;22.93;100.00
3668;BME280;24099;47.102;15.440;2022-07-15T13:17:39;97228.81;;;22.91;100.00